ADDS METAR Data INFO
IDs: Format: Raw Decoded Include TAF

Data at: 2257 UTC 22 Jun 2018

KOVE 222253Z AUTO 28008KT 10SM CLR 37/11 A2981 RMK AO2 SLP095 T03670111
KOVE 222153Z AUTO 26006KT 10SM CLR 36/12 A2984 RMK AO2 SLP104 T03560122
KOVE 222053Z AUTO 28005KT 10SM CLR 34/11 A2986 RMK AO2 SLP113 T03390111 58020
KOVE 221953Z AUTO 28005KT 10SM CLR 33/11 A2989 RMK AO2 SLP122 T03280106
KOVE 221853Z AUTO 26004KT 10SM CLR 31/13 A2991 RMK AO2 SLP130 T03110128
KOVE 221753Z AUTO VRB03KT 10SM CLR 29/13 A2992 RMK AO2 SLP133 T02890133 10300 20178 58004
KOVE 221653Z AUTO 00000KT 10SM CLR 28/10 A2993 RMK AO2 SLP136 T02830100
KOVE 221553Z AUTO 20003KT 10SM CLR 26/11 A2994 RMK AO2 SLP139 T02610106
KOVE 221453Z AUTO 17003KT 10SM CLR 24/11 A2993 RMK AO2 SLP136 T02440106 51006
KOVE 221353Z AUTO 00000KT 10SM CLR 21/12 A2993 RMK AO2 SLP135 T02110117
KOVE 221253Z AUTO 00000KT 10SM CLR 18/12 A2993 RMK AO2 SLP135 T01830122
KOVE 221153Z AUTO 27003KT 10SM CLR 19/13 A2992 RMK AO2 SLP130 T01890133 10256 20183 53004
KOVE 221053Z AUTO 05005KT 10SM CLR 21/08 A2990 RMK AO2 SLP126 T02060083
KOVE 220953Z AUTO 07004KT 10SM CLR 23/08 A2990 RMK AO2 SLP126 T02330078
KOVE 220853Z AUTO 06004KT 10SM CLR 24/08 A2991 RMK AO2 SLP126 T02440083 56001
KOVE 220753Z AUTO 06005KT 10SM CLR 25/09 A2991 RMK AO2 SLP127 T02500089 403500156
KOVE 220653Z AUTO 07007KT 10SM CLR 25/10 A2991 RMK AO2 SLP127 T02500100
KOVE 220553Z AUTO 06004KT 10SM CLR 26/10 A2991 RMK AO2 SLP128 T02560100 10350 20250 53009
KOVE 220453Z AUTO 00000KT 10SM CLR 26/08 A2990 RMK AO2 SLP126 T02610078
KOVE 220353Z AUTO 00000KT 10SM CLR 29/09 A2988 RMK AO2 SLP120 T02890089
KOVE 220253Z AUTO 00000KT 10SM CLR 32/07 A2988 RMK AO2 SLP119 T03220072 55002
KOVE 220153Z AUTO VRB04KT 10SM CLR 34/01 A2988 RMK AO2 SLP118 T03440006
KOVE 220053Z AUTO 21005KT 10SM CLR 35/03 A2988 RMK AO2 SLP117 T03500033
KOVE 212353Z AUTO VRB04KT 10SM CLR 34/05 A2989 RMK AO2 SLP121 T03440050 10350 20250 58022
KOVE 212253Z AUTO 00000KT 10SM CLR 34/03 A2991 RMK AO2 SLP129 T03440033
KOVE 212153Z AUTO 25003KT 10SM CLR 33/12 A2994 RMK AO2 SLP138 T03330122
KOVE 212053Z AUTO 30005KT 10SM CLR 31/13 A2996 RMK AO2 SLP144 T03110128 56011
KOVE 211953Z AUTO VRB03KT 10SM CLR 29/13 A2996 RMK AO2 SLP146 T02940128
KOVE 211853Z AUTO 00000KT 10SM CLR 28/12 A2997 RMK AO2 SLP149 T02830122
KOVE 211753Z AUTO 30003KT 10SM CLR 25/12 A2999 RMK AO2 SLP156 T02500117 10256 20156 50000
KOVE 211653Z AUTO VRB03KT 10SM CLR 24/12 A2999 RMK AO2 SLP156 T02390117
KOVE 211553Z AUTO 00000KT 10SM CLR 21/11 A2999 RMK AO2 SLP156 T02110106
KOVE 211453Z AUTO 18004KT 10SM CLR 18/10 A2999 RMK AO2 SLP156 T01830100 51011
KOVE 211353Z AUTO 17005KT 10SM CLR 17/10 A2999 RMK AO2 SLP155 T01720100
KOVE 211253Z AUTO 13003KT 10SM CLR 16/10 A2997 RMK AO2 SLP151 T01560100
KOVE 211153Z AUTO 12004KT 10SM CLR 16/10 A2996 RMK AO2 SLP144 T01610100 10239 20161 51010